createdAt,value
2024-02-14T00:01:50.018Z,87.72
2024-02-14T00:06:55.550Z,87.83
2024-02-14T00:11:59.452Z,88.10
2024-02-14T00:17:03.185Z,87.66
2024-02-14T00:22:07.884Z,87.52
2024-02-14T00:27:12.762Z,87.82
2024-02-14T00:32:17.822Z,88.05
2024-02-14T00:37:23.130Z,88.00
2024-02-14T00:42:27.927Z,87.96
2024-02-14T00:47:34.181Z,88.14
2024-02-14T00:52:38.193Z,88.10
2024-02-14T00:57:42.083Z,88.05
2024-02-14T01:02:46.691Z,88.04
2024-02-14T01:07:50.608Z,87.73
2024-02-14T01:12:54.631Z,87.14
2024-02-14T01:17:58.257Z,87.51
2024-02-14T01:28:32.035Z,87.07
2024-02-14T01:33:37.576Z,87.20
2024-02-14T01:38:41.855Z,87.59
2024-02-14T01:43:46.273Z,87.32
2024-02-14T01:48:51.517Z,87.45
2024-02-14T01:53:56.787Z,87.50
2024-02-14T01:59:01.841Z,87.66
2024-02-14T02:04:06.822Z,87.39
2024-02-14T02:09:12.193Z,87.04
2024-02-14T02:14:18.128Z,86.72
2024-02-14T02:19:22.265Z,86.97
2024-02-14T02:24:26.702Z,87.11
2024-02-14T02:29:31.601Z,86.65
2024-02-14T02:34:36.222Z,86.88
2024-02-14T02:39:40.455Z,86.92
2024-02-14T02:44:47.687Z,86.76
2024-02-14T02:49:53.425Z,87.02
2024-02-14T02:54:57.874Z,87.25
2024-02-14T03:00:02.183Z,87.10
2024-02-14T03:05:12.388Z,87.22
2024-02-14T03:10:22.315Z,87.27
2024-02-14T03:15:30.433Z,87.41
2024-02-14T03:20:35.013Z,87.57
2024-02-14T03:25:39.499Z,87.83
2024-02-14T03:30:43.906Z,87.38
2024-02-14T03:35:49.789Z,87.38
2024-02-14T03:40:54.458Z,87.85
2024-02-14T03:45:58.441Z,88.07
2024-02-14T03:51:03.141Z,88.02
2024-02-14T03:56:08.825Z,88.51
2024-02-14T04:01:13.762Z,88.49
2024-02-14T04:06:19.749Z,88.46
2024-02-14T04:11:24.277Z,88.75
2024-02-14T04:16:28.418Z,88.68
2024-02-14T04:21:33.227Z,88.58
2024-02-14T04:26:37.343Z,88.46
2024-02-14T04:31:41.201Z,88.65
2024-02-14T04:36:45.536Z,89.34
2024-02-14T04:41:57.468Z,89.44
2024-02-14T04:47:06.611Z,89.20
2024-02-14T04:52:10.765Z,89.84
2024-02-14T04:57:15.830Z,89.51
2024-02-14T05:02:21.060Z,89.62
2024-02-14T05:07:26.087Z,89.76
2024-02-14T05:12:30.480Z,89.94
2024-02-14T05:17:34.842Z,90.15
2024-02-14T05:22:40.867Z,90.09
2024-02-14T05:27:48.679Z,89.60
2024-02-14T05:32:54.194Z,89.94
2024-02-14T05:37:59.412Z,89.73
2024-02-14T05:43:03.660Z,90.01
2024-02-14T05:48:09.652Z,90.07
2024-02-14T05:53:15.713Z,90.41
2024-02-14T05:58:20.799Z,90.05
2024-02-14T06:03:25.668Z,90.03
2024-02-14T06:08:30.076Z,90.60
2024-02-14T06:13:34.999Z,90.44
2024-02-14T06:18:38.641Z,90.62
2024-02-14T06:23:43.407Z,90.41
2024-02-14T06:28:48.592Z,90.71
2024-02-14T06:33:53.255Z,90.92
2024-02-14T06:38:58.243Z,90.97
2024-02-14T06:44:03.296Z,90.98
2024-02-14T06:49:08.067Z,90.96
2024-02-14T06:54:15.788Z,91.32
2024-02-14T06:59:19.888Z,91.47
2024-02-14T07:04:27.096Z,91.92
2024-02-14T07:09:37.126Z,92.26
2024-02-14T07:14:42.356Z,92.94
2024-02-14T07:19:51.710Z,93.42
2024-02-14T07:24:56.625Z,93.01
2024-02-14T07:30:01.250Z,92.08
2024-02-14T07:35:09.094Z,90.91
2024-02-14T07:40:16.056Z,90.10
2024-02-14T07:45:22.387Z,89.11
2024-02-14T07:50:26.500Z,88.31
2024-02-14T07:55:31.256Z,87.33
2024-02-14T08:00:36.351Z,86.70
2024-02-14T08:05:40.501Z,86.26
2024-02-14T08:10:44.978Z,86.30
2024-02-14T08:15:49.954Z,86.19
2024-02-14T08:20:53.884Z,86.33
2024-02-14T08:25:58.809Z,86.14
2024-02-14T08:31:03.552Z,86.23
2024-02-14T08:36:08.124Z,86.22
2024-02-14T08:41:12.520Z,86.83
2024-02-14T08:46:16.325Z,87.19
2024-02-14T08:51:22.301Z,86.88
2024-02-14T08:56:27.911Z,87.13
2024-02-14T09:01:32.083Z,87.06
2024-02-14T09:06:39.493Z,86.80
2024-02-14T09:11:44.448Z,86.53
2024-02-14T09:16:49.496Z,85.99
2024-02-14T09:21:54.094Z,85.35
2024-02-14T09:26:58.914Z,85.44
2024-02-14T09:32:02.806Z,85.08
2024-02-14T09:37:08.393Z,84.86
2024-02-14T09:42:15.769Z,83.89
2024-02-14T09:47:21.252Z,83.68
2024-02-14T09:52:25.452Z,83.47
2024-02-14T09:57:31.201Z,83.51
2024-02-14T10:02:35.628Z,82.72
2024-02-14T10:07:44.521Z,81.97
2024-02-14T10:12:48.348Z,80.95
2024-02-14T10:17:52.545Z,80.86
2024-02-14T10:23:04.994Z,80.62
2024-02-14T10:28:11.910Z,80.41
2024-02-14T10:33:24.517Z,79.67
2024-02-14T10:38:34.945Z,79.42
2024-02-14T10:43:41.452Z,79.54
2024-02-14T10:48:45.748Z,78.89
2024-02-14T10:53:51.264Z,78.63
2024-02-14T10:59:00.140Z,77.80
2024-02-14T11:04:06.426Z,77.41
2024-02-14T11:09:15.488Z,76.73
2024-02-14T11:14:24.115Z,76.34
2024-02-14T11:19:37.990Z,75.77
2024-02-14T11:24:42.986Z,75.07
2024-02-14T11:29:54.790Z,74.85
2024-02-14T11:35:00.734Z,74.18
2024-02-14T11:40:05.948Z,74.17
2024-02-14T11:45:11.394Z,73.30
2024-02-14T11:50:16.108Z,73.17
2024-02-14T11:55:30.038Z,72.57
2024-02-14T12:00:34.688Z,72.84
2024-02-14T12:05:39.862Z,72.52
2024-02-14T12:10:54.675Z,72.34
2024-02-14T12:16:00.684Z,71.93
2024-02-14T12:21:11.791Z,71.47
2024-02-14T12:26:19.208Z,71.31
2024-02-14T12:31:27.108Z,70.99
2024-02-14T12:36:31.522Z,70.64
2024-02-14T12:41:37.473Z,70.97
2024-02-14T12:46:41.669Z,70.49
2024-02-14T12:51:46.252Z,69.67
2024-02-14T12:56:51.037Z,68.91
2024-02-14T13:01:55.682Z,69.54
2024-02-14T13:07:00.617Z,69.45
2024-02-14T13:12:07.701Z,69.15
2024-02-14T13:17:12.767Z,69.26
2024-02-14T13:22:18.143Z,69.07
2024-02-14T13:27:23.136Z,68.67
2024-02-14T13:32:28.156Z,68.32
2024-02-14T13:37:33.540Z,68.34
2024-02-14T13:42:40.889Z,68.06
2024-02-14T13:47:48.202Z,68.07
2024-02-14T13:52:53.253Z,68.14
2024-02-14T13:57:58.329Z,68.22
2024-02-14T14:03:02.894Z,68.23
2024-02-14T14:08:07.901Z,67.67
2024-02-14T14:13:12.898Z,67.37
2024-02-14T14:18:17.357Z,67.12
2024-02-14T14:23:21.861Z,67.09
2024-02-14T14:28:26.532Z,67.17
2024-02-14T14:33:31.613Z,67.06
2024-02-14T14:38:36.509Z,66.89
2024-02-14T14:43:40.908Z,66.87
2024-02-14T14:48:45.882Z,66.76
2024-02-14T14:53:51.635Z,66.67
2024-02-14T14:58:58.123Z,66.99
2024-02-14T15:04:03.736Z,67.21
2024-02-14T15:09:09.411Z,67.21
2024-02-14T15:14:13.936Z,67.24
2024-02-14T15:19:18.738Z,67.56
2024-02-14T15:24:23.003Z,67.50
2024-02-14T15:29:47.283Z,67.78
2024-02-14T15:34:53.817Z,67.95
2024-02-14T15:39:59.562Z,67.61
2024-02-14T15:45:04.699Z,68.01
2024-02-14T15:50:10.006Z,68.31
2024-02-14T15:55:14.714Z,68.57
2024-02-14T16:00:19.700Z,68.87
2024-02-14T16:05:24.671Z,68.55
2024-02-14T16:10:29.489Z,69.01
2024-02-14T16:15:33.416Z,69.67
2024-02-14T16:20:39.041Z,69.48
2024-02-14T16:25:44.952Z,69.79
2024-02-14T16:30:48.940Z,69.86
2024-02-14T16:35:54.212Z,70.13
2024-02-14T16:40:58.630Z,70.16
2024-02-14T16:46:02.490Z,70.18
2024-02-14T16:51:08.764Z,70.67
2024-02-14T16:56:12.626Z,71.00
2024-02-14T17:01:16.783Z,70.88
2024-02-14T17:06:21.640Z,71.03
2024-02-14T17:11:27.148Z,71.42
2024-02-14T17:16:32.764Z,71.20
2024-02-14T17:21:38.625Z,71.35
2024-02-14T17:26:42.994Z,71.55
2024-02-14T17:31:47.892Z,71.74
2024-02-14T17:36:54.616Z,71.68
2024-02-14T17:41:59.302Z,71.91
2024-02-14T17:47:12.711Z,72.31
2024-02-14T17:52:22.379Z,72.32
2024-02-14T17:57:26.843Z,72.55
2024-02-14T18:02:30.736Z,72.32
2024-02-14T18:07:34.916Z,72.18
2024-02-14T18:12:39.081Z,72.80
2024-02-14T18:17:44.354Z,72.43
2024-02-14T18:22:48.958Z,72.88
2024-02-14T18:27:54.587Z,72.74
2024-02-14T18:32:58.388Z,72.99
2024-02-14T18:38:03.638Z,73.02
2024-02-14T18:43:08.276Z,72.72
2024-02-14T18:48:13.458Z,72.78
2024-02-14T18:53:18.965Z,73.32
2024-02-14T18:58:23.697Z,73.54
2024-02-14T19:03:28.000Z,73.55
2024-02-14T19:08:32.279Z,73.66
2024-02-14T19:13:36.235Z,73.68
2024-02-14T19:18:40.129Z,73.52
2024-02-14T19:23:45.548Z,73.77
2024-02-14T19:28:50.071Z,73.74
2024-02-14T19:33:55.530Z,74.08
2024-02-14T19:39:00.971Z,74.36
2024-02-14T19:44:05.610Z,74.28
2024-02-14T19:49:15.441Z,74.20
2024-02-14T19:54:20.465Z,74.44
2024-02-14T19:59:24.511Z,74.66
2024-02-14T20:04:28.664Z,74.86
2024-02-14T20:09:32.932Z,74.68
2024-02-14T20:14:37.182Z,74.83
2024-02-14T20:19:42.706Z,74.47
2024-02-14T20:24:46.423Z,75.09
2024-02-14T20:29:51.766Z,74.89
2024-02-14T20:34:56.765Z,75.36
2024-02-14T20:40:01.312Z,75.22
2024-02-14T20:45:06.044Z,75.35
2024-02-14T20:50:11.345Z,75.51
2024-02-14T20:55:18.460Z,75.21
2024-02-14T21:00:24.348Z,75.45
2024-02-14T21:05:28.335Z,75.79
2024-02-14T21:10:34.852Z,75.77
2024-02-14T21:15:40.158Z,75.90
2024-02-14T21:20:44.673Z,75.84
2024-02-14T21:25:49.150Z,75.97
2024-02-14T21:30:53.354Z,75.99
2024-02-14T21:35:58.897Z,76.36
2024-02-14T21:41:02.560Z,76.65
2024-02-14T21:46:06.777Z,76.51
2024-02-14T21:51:12.251Z,76.94
2024-02-14T21:56:16.556Z,76.84
2024-02-14T22:01:20.313Z,77.36
2024-02-14T22:06:25.067Z,77.31
2024-02-14T22:11:29.411Z,77.01
2024-02-14T22:16:33.341Z,77.22
2024-02-14T22:21:37.293Z,77.16
2024-02-14T22:26:41.375Z,77.11
2024-02-14T22:31:45.286Z,77.51
2024-02-14T22:36:49.733Z,77.96
2024-02-14T22:41:53.693Z,77.90
2024-02-14T22:46:57.781Z,77.75
2024-02-14T22:52:01.767Z,78.20
2024-02-14T22:57:06.266Z,78.20
2024-02-14T23:02:10.278Z,78.62
2024-02-14T23:07:14.856Z,78.59
2024-02-14T23:12:19.472Z,78.50
2024-02-14T23:17:23.454Z,79.00
2024-02-14T23:22:30.085Z,78.82
2024-02-14T23:27:33.684Z,79.34
2024-02-14T23:32:40.741Z,79.12
2024-02-14T23:37:45.156Z,79.56
2024-02-14T23:42:49.052Z,79.83
2024-02-14T23:47:55.864Z,79.76
2024-02-14T23:53:00.679Z,80.40
2024-02-14T23:58:05.870Z,80.39
